Middleton, WI (53562)

9:31 PM CST on February 20, 2017 (GMT -0600)
Sak's Woods, Middleton | | Change Station

Elev 948 ft 43.10 °N, 89.50 °W | Updated 1 second ago

Rain
Rain
54.7 °F
Feels Like 54.7 °F
N
2.0
Wind Variable Wind from SSW

Today
High -- | Low -- °F
--% Chance of Precip.
Yesterday
High -- | Low -- °F
Precip. -- in
Pressure 29.87 in
Visibility 7.0 miles
Clouds Mostly Cloudy 4500 ft
Mostly Cloudy 5500 ft
Overcast 8000 ft
Dew Point 52 °F
Humidity 91%
Rainfall 0.30 in
Snow Depth Not available.
6:47 AM 5:36 PM
Waning Crescent, 29% visible
METAR KMSN 210253Z 19008KT 7SM -RA BKN045 BKN055 OVC080 14/11 A2986 RMK AO2 SLP113 P0001 60002 T01390111 55002
Pressure 29.87 in
Visibility 7.0 miles
Clouds Mostly Cloudy 4500 ft
Mostly Cloudy 5500 ft
Overcast 8000 ft
Dew Point 52 °F
Humidity 91%
Rainfall 0.30 in
Snow Depth Not available.
6:47 AM 5:36 PM
Waning Crescent, 29% visible
METAR KMSN 210253Z 19008KT 7SM -RA BKN045 BKN055 OVC080 14/11 A2986 RMK AO2 SLP113 P0001 60002 T01390111 55002

Get Your Daily Forecast Email!

Thanks for signing up!

Be on the lookout for a verification email in your inbox.

You'll start receiving the daily forecast at 8 AM.

×

10-Day Weather Forecast

Almanac

Astronomy

Feb. 20, 2017 Rise Set
Actual Time
Civil Twilight
Nautical Twilight
Astronomical Twilight
Moon
Length of Visible Light
Length of Day
Tomorrow will be .
, % of the Moon is Illuminated

Today's Extremes

State Highs State Lows

Community

WunderPhotos

Upload Photos

1,962,540 photos uploaded!

WunderBlog® & News

Nearby

Air Quality

  Air Quality AQ Index Pollutant
Not available.

Snow Depth

Station Depth Elevation

Earthquake Activity

City Distance Mag. Time & Date
Minimum magnitude displayed is 2.5.

Coastal Water Temperatures

Place Temperature

Stations

Nearby Weather Stations

Station Location Temp. Windchill Dew Point Humidity Wind Precip. Elev Updated Type
                   

Watches & Warnings

There are currently no watches in effect.